Time;durP1;ratioP1;P1;durP2;ratioP2;P2;SDS_P1;SDS_P2;PMS_P1;PMS_P2;Temp;Humidity;BMP_temperature;BMP_pressure;BME280_temperature;BME280_humidity;BME280_pressure;Samples;Min_cycle;Max_cycle;Signal;HPM_P1;HPM_P2
2022/05/14 00:00:25;;;;;;;;;;;12.40;99.90;;;;;;4939241;29;20270;-88
2022/05/14 00:02:55;;;;;;;;;;;12.50;99.90;;;;;;4938541;29;20005;-88
2022/05/14 00:05:24;;;;;;;;;;;12.80;99.90;;;;;;4938170;29;19939;-88
2022/05/14 00:07:51;;;;;;;;;;;12.80;99.90;;;;;;4938923;29;19922;-89
2022/05/14 00:10:19;;;;;;;;;;;12.90;99.90;;;;;;4939113;29;20013;-90
2022/05/14 00:15:31;;;;;;;;;;;12.90;99.90;;;;;;4938786;29;19930;-90
2022/05/14 00:17:59;;;;;;;;;;;12.90;99.90;;;;;;4947917;29;20017;-88
2022/05/14 00:20:26;;;;;;;;;;;12.70;99.90;;;;;;4923987;29;19927;-90
2022/05/14 00:22:53;;;;;;;;;;;12.80;99.90;;;;;;4937078;29;20010;-87
2022/05/14 00:25:21;;;;;;;;;;;12.30;99.90;;;;;;4938838;29;20022;-88
2022/05/14 00:27:49;;;;;;;;;;;12.10;99.90;;;;;;4921341;29;20456;-88
2022/05/14 00:30:17;;;;;;;;;;;12.10;99.90;;;;;;4938490;29;19929;-90
2022/05/14 00:32:44;;;;;;;;;;;12.40;99.90;;;;;;4938264;29;20017;-88
2022/05/14 00:35:13;;;;;;;;;;;12.50;99.90;;;;;;4942189;29;20009;-88
2022/05/14 00:37:40;;;;;;;;;;;12.50;99.90;;;;;;4942383;29;20420;-88
2022/05/14 00:40:10;;;;;;;;;;;12.20;99.90;;;;;;4938482;29;20017;-89
2022/05/14 00:42:37;;;;;;;;;;;12.20;99.90;;;;;;4938324;29;20021;-90
2022/05/14 00:45:05;;;;;;;;;;;12.20;99.90;;;;;;4938260;29;19930;-89
2022/05/14 00:47:35;;;;;;;;;;;12.10;99.90;;;;;;4937207;29;20026;-88
2022/05/14 00:50:04;;;;;;;;;;;12.00;99.90;;;;;;4953584;29;21413;-88
2022/05/14 00:52:32;;;;;;;;;;;11.90;99.90;;;;;;4938300;29;19923;-89
2022/05/14 00:55:01;;;;;;;;;;;11.80;99.90;;;;;;4938174;29;20025;-87
2022/05/14 00:57:32;;;;;;;;;;;11.90;99.90;;;;;;4937958;29;19956;-87
2022/05/14 01:00:01;;;;;;;;;;;12.10;99.90;;;;;;4937575;29;20595;-87
2022/05/14 01:02:28;;;;;;;;;;;12.10;99.90;;;;;;4937900;29;19950;-88
2022/05/14 01:04:55;;;;;;;;;;;12.30;99.90;;;;;;4937782;29;20328;-89
2022/05/14 01:07:23;;;;;;;;;;;12.10;99.90;;;;;;4937838;29;20021;-89
2022/05/14 01:09:57;;;;;;;;;;;12.20;99.90;;;;;;4937747;29;20347;-87
2022/05/14 01:12:25;;;;;;;;;;;12.20;99.90;;;;;;4937872;29;20013;-87
2022/05/14 01:14:52;;;;;;;;;;;12.30;99.90;;;;;;4937394;29;20009;-87
2022/05/14 01:17:20;;;;;;;;;;;12.30;99.90;;;;;;4937579;29;20377;-86
2022/05/14 01:19:47;;;;;;;;;;;12.40;99.90;;;;;;4937188;29;20381;-88
2022/05/14 01:22:22;;;;;;;;;;;12.40;99.90;;;;;;4937293;29;20014;-88
2022/05/14 01:27:41;;;;;;;;;;;12.30;99.90;;;;;;4939261;29;19930;-88
2022/05/14 01:30:08;;;;;;;;;;;12.20;99.90;;;;;;4936171;29;20009;-86
2022/05/14 01:32:35;;;;;;;;;;;12.10;99.90;;;;;;4936776;29;19970;-85
2022/05/14 01:35:02;;;;;;;;;;;11.90;99.90;;;;;;4948599;29;20025;-85
2022/05/14 01:37:30;;;;;;;;;;;11.70;99.90;;;;;;4915518;29;20022;-86
2022/05/14 01:39:56;;;;;;;;;;;11.80;99.90;;;;;;4936361;29;20022;-86
2022/05/14 01:42:23;;;;;;;;;;;11.70;99.90;;;;;;4937067;29;20445;-86
2022/05/14 01:44:52;;;;;;;;;;;11.80;99.90;;;;;;4945105;29;20380;-86
2022/05/14 01:47:19;;;;;;;;;;;11.70;99.90;;;;;;4940613;29;20025;-88
2022/05/14 01:49:46;;;;;;;;;;;11.60;99.90;;;;;;4936796;29;19922;-87
2022/05/14 01:52:12;;;;;;;;;;;11.70;99.90;;;;;;4940708;29;19927;-88
2022/05/14 01:54:39;;;;;;;;;;;11.80;99.90;;;;;;4948254;29;20451;-86
2022/05/14 01:57:06;;;;;;;;;;;11.80;99.90;;;;;;4928817;29;19972;-86
2022/05/14 01:59:33;;;;;;;;;;;11.70;99.90;;;;;;4936465;29;20009;-86
2022/05/14 02:02:02;;;;;;;;;;;11.50;99.90;;;;;;4936184;29;20013;-85
2022/05/14 02:04:29;;;;;;;;;;;11.20;99.90;;;;;;4940372;29;19930;-86
2022/05/14 02:06:59;;;;;;;;;;;11.40;99.90;;;;;;4936738;29;20021;-85
2022/05/14 02:09:26;;;;;;;;;;;11.10;99.90;;;;;;4936249;29;20440;-87
2022/05/14 02:11:52;;;;;;;;;;;11.10;99.90;;;;;;4950188;29;20020;-85
2022/05/14 02:14:19;;;;;;;;;;;11.30;99.90;;;;;;4936373;29;20021;-87
2022/05/14 02:16:46;;;;;;;;;;;11.30;99.90;;;;;;4936903;29;20018;-87
2022/05/14 02:19:17;;;;;;;;;;;11.50;99.90;;;;;;4936868;29;19922;-88
2022/05/14 02:21:43;;;;;;;;;;;11.60;99.90;;;;;;4936482;29;20377;-88
2022/05/14 02:24:10;;;;;;;;;;;11.50;99.90;;;;;;4929513;29;20010;-86
2022/05/14 02:26:37;;;;;;;;;;;11.60;99.90;;;;;;4936896;29;20014;-86
2022/05/14 02:29:04;;;;;;;;;;;11.60;99.90;;;;;;4940066;29;20014;-88
2022/05/14 02:31:31;;;;;;;;;;;11.40;99.90;;;;;;4940465;29;20485;-89
2022/05/14 02:33:58;;;;;;;;;;;11.40;99.90;;;;;;4940548;29;20014;-89
2022/05/14 02:36:27;;;;;;;;;;;11.40;99.90;;;;;;4940480;29;19950;-88
2022/05/14 02:38:54;;;;;;;;;;;11.30;99.90;;;;;;4921788;29;20329;-88
2022/05/14 02:41:21;;;;;;;;;;;11.40;99.90;;;;;;4940569;29;20010;-87
2022/05/14 02:43:47;;;;;;;;;;;11.40;99.90;;;;;;4940439;29;20017;-87
2022/05/14 02:46:15;;;;;;;;;;;11.50;99.90;;;;;;4941554;29;19958;-89
2022/05/14 02:48:42;;;;;;;;;;;11.40;99.90;;;;;;4947570;29;19928;-87
2022/05/14 02:51:09;;;;;;;;;;;11.50;99.90;;;;;;4949563;29;20353;-89
2022/05/14 02:53:37;;;;;;;;;;;11.40;99.90;;;;;;4941477;29;20013;-88
2022/05/14 02:56:04;;;;;;;;;;;11.30;99.90;;;;;;4940617;29;20022;-88
2022/05/14 03:01:15;;;;;;;;;;;11.50;99.90;;;;;;4941446;29;20006;-88
2022/05/14 03:03:45;;;;;;;;;;;11.40;99.90;;;;;;4940582;29;20022;-88
2022/05/14 03:06:12;;;;;;;;;;;11.40;99.90;;;;;;4925058;29;19923;-86
2022/05/14 03:08:41;;;;;;;;;;;11.20;99.90;;;;;;4940214;29;19923;-89
2022/05/14 03:11:08;;;;;;;;;;;11.40;99.90;;;;;;4940324;29;20001;-88
2022/05/14 03:13:35;;;;;;;;;;;11.30;99.90;;;;;;4947470;29;20005;-87
2022/05/14 03:16:02;;;;;;;;;;;11.30;99.90;;;;;;4950254;29;19944;-89
2022/05/14 03:18:29;;;;;;;;;;;11.40;99.90;;;;;;4945071;29;20365;-87
2022/05/14 03:20:58;;;;;;;;;;;11.40;99.90;;;;;;4939599;29;20001;-88
2022/05/14 03:23:25;;;;;;;;;;;11.40;99.90;;;;;;4940052;29;19966;-88
2022/05/14 03:25:53;;;;;;;;;;;11.30;99.90;;;;;;4939907;29;20348;-88
2022/05/14 03:28:20;;;;;;;;;;;11.20;99.90;;;;;;4939448;29;19934;-88
2022/05/14 03:30:47;;;;;;;;;;;11.10;99.90;;;;;;4939495;29;20013;-90
2022/05/14 03:33:14;;;;;;;;;;;11.00;99.90;;;;;;4949708;29;20436;-89
2022/05/14 03:35:42;;;;;;;;;;;10.70;99.90;;;;;;4957590;29;19922;-85
2022/05/14 03:38:08;;;;;;;;;;;10.70;99.90;;;;;;4946763;29;19922;-88
2022/05/14 03:40:35;;;;;;;;;;;10.70;99.90;;;;;;4939493;29;20079;-86
2022/05/14 03:43:05;;;;;;;;;;;10.70;99.90;;;;;;4938700;29;20014;-86
2022/05/14 03:45:32;;;;;;;;;;;10.80;99.90;;;;;;4925029;29;20019;-87
2022/05/14 03:48:01;;;;;;;;;;;11.10;99.90;;;;;;4921736;29;20441;-85
2022/05/14 03:50:29;;;;;;;;;;;11.10;99.90;;;;;;4944292;29;19922;-85
2022/05/14 03:52:57;;;;;;;;;;;11.00;99.90;;;;;;4955540;29;20021;-86
2022/05/14 03:55:25;;;;;;;;;;;11.00;99.90;;;;;;4938864;29;19922;-87
2022/05/14 03:57:51;;;;;;;;;;;11.00;99.90;;;;;;4938956;29;19966;-87
2022/05/14 04:00:24;;;;;;;;;;;11.10;99.90;;;;;;4938747;29;20325;-86
2022/05/14 04:02:50;;;;;;;;;;;11.10;99.90;;;;;;4938507;29;19926;-88
2022/05/14 04:05:18;;;;;;;;;;;11.00;99.90;;;;;;4938694;29;19923;-84
2022/05/14 04:07:45;;;;;;;;;;;10.90;99.90;;;;;;4938863;29;20030;-86
2022/05/14 04:10:13;;;;;;;;;;;11.00;99.90;;;;;;4941859;29;19978;-85
2022/05/14 04:12:40;;;;;;;;;;;11.00;99.90;;;;;;4953429;29;19938;-85
2022/05/14 04:15:08;;;;;;;;;;;11.00;99.90;;;;;;4950073;29;19978;-85
2022/05/14 04:17:36;;;;;;;;;;;10.90;99.90;;;;;;4926336;29;20339;-85
2022/05/14 04:20:05;;;;;;;;;;;11.00;99.90;;;;;;4937832;29;19961;-84
2022/05/14 04:22:32;;;;;;;;;;;10.90;99.90;;;;;;4951816;29;20447;-85
2022/05/14 04:24:59;;;;;;;;;;;10.70;99.90;;;;;;4938637;29;20365;-83
2022/05/14 04:27:26;;;;;;;;;;;10.80;99.90;;;;;;4938501;29;20358;-86
2022/05/14 04:29:53;;;;;;;;;;;10.80;99.90;;;;;;4936664;29;20001;-85
2022/05/14 04:32:20;;;;;;;;;;;10.80;99.90;;;;;;4938149;29;19961;-86
2022/05/14 04:34:48;;;;;;;;;;;10.70;99.90;;;;;;4938314;29;20017;-85
2022/05/14 04:37:15;;;;;;;;;;;10.50;99.90;;;;;;4937843;29;19961;-86
2022/05/14 04:39:42;;;;;;;;;;;10.30;99.90;;;;;;4953137;29;20423;-87
2022/05/14 04:42:10;;;;;;;;;;;10.50;99.90;;;;;;4938584;29;19926;-87
2022/05/14 04:44:38;;;;;;;;;;;10.80;99.90;;;;;;4938177;29;19923;-86
2022/05/14 04:47:06;;;;;;;;;;;10.90;99.90;;;;;;4943145;29;20030;-84
2022/05/14 04:49:33;;;;;;;;;;;10.90;99.90;;;;;;4937558;29;20017;-86
2022/05/14 04:52:01;;;;;;;;;;;10.90;99.90;;;;;;4954258;29;20013;-84
2022/05/14 04:54:28;;;;;;;;;;;11.00;99.90;;;;;;4950486;29;20013;-85
2022/05/14 04:56:55;;;;;;;;;;;11.10;99.90;;;;;;4946555;29;20009;-85
2022/05/14 04:59:22;;;;;;;;;;;11.10;99.90;;;;;;4943776;29;19965;-84
2022/05/14 05:04:31;;;;;;;;;;;10.90;99.90;;;;;;4937231;29;19929;-84
2022/05/14 05:06:58;;;;;;;;;;;10.90;99.90;;;;;;4937551;29;19969;-86
2022/05/14 05:09:27;;;;;;;;;;;11.20;99.90;;;;;;4936692;29;20017;-85
2022/05/14 05:11:53;;;;;;;;;;;11.30;99.90;;;;;;4935360;29;20036;-84
2022/05/14 05:14:20;;;;;;;;;;;11.20;99.90;;;;;;4936909;29;20013;-87
2022/05/14 05:16:48;;;;;;;;;;;11.00;99.90;;;;;;4936766;29;19997;-85
2022/05/14 05:19:15;;;;;;;;;;;11.00;99.90;;;;;;4929762;29;20021;-85
2022/05/14 05:21:42;;;;;;;;;;;11.00;99.90;;;;;;4950659;29;20025;-84
2022/05/14 05:24:09;;;;;;;;;;;11.10;99.90;;;;;;4948072;29;19922;-85
2022/05/14 05:26:38;;;;;;;;;;;11.20;99.90;;;;;;4954504;29;20009;-84
2022/05/14 05:29:05;;;;;;;;;;;11.30;99.90;;;;;;4951578;29;20030;-88
2022/05/14 05:31:34;;;;;;;;;;;11.30;99.90;;;;;;4942464;29;20364;-81
2022/05/14 05:34:01;;;;;;;;;;;11.40;99.90;;;;;;4945880;29;19926;-83
2022/05/14 05:36:28;;;;;;;;;;;11.50;99.90;;;;;;4941179;29;19985;-82
2022/05/14 05:38:55;;;;;;;;;;;11.50;99.90;;;;;;4934644;29;20009;-84
2022/05/14 05:41:22;;;;;;;;;;;11.60;99.90;;;;;;4954155;29;20017;-83
2022/05/14 05:43:51;;;;;;;;;;;11.60;99.90;;;;;;4953110;28;19922;-80
2022/05/14 05:46:17;;;;;;;;;;;11.50;99.90;;;;;;4939385;29;19958;-86
2022/05/14 05:48:44;;;;;;;;;;;11.50;99.90;;;;;;4939479;29;20009;-85
2022/05/14 05:51:11;;;;;;;;;;;11.70;99.90;;;;;;4946982;29;19973;-84
2022/05/14 05:59:09;;;;;;;;;;;11.80;99.90;;;;;;4949076;29;21763;-84
2022/05/14 06:01:36;;;;;;;;;;;11.90;99.90;;;;;;4934544;29;20024;-85
2022/05/14 06:04:03;;;;;;;;;;;12.00;99.90;;;;;;4940831;29;20026;-84
2022/05/14 06:06:30;;;;;;;;;;;12.20;99.90;;;;;;4935942;29;19962;-83
2022/05/14 06:08:57;;;;;;;;;;;12.30;99.90;;;;;;4923608;29;20377;-88
2022/05/14 06:11:25;;;;;;;;;;;12.20;99.90;;;;;;4936331;29;20359;-81
2022/05/14 06:13:52;;;;;;;;;;;12.20;99.90;;;;;;4942716;29;19926;-81
2022/05/14 06:16:21;;;;;;;;;;;12.20;99.90;;;;;;4951388;29;20020;-83
2022/05/14 06:18:48;;;;;;;;;;;12.40;99.90;;;;;;4953920;29;20009;-81
2022/05/14 06:21:15;;;;;;;;;;;12.40;99.90;;;;;;4951328;29;20021;-82
2022/05/14 06:23:42;;;;;;;;;;;12.40;99.90;;;;;;4927282;29;20016;-82
2022/05/14 06:26:09;;;;;;;;;;;12.40;99.90;;;;;;4937598;29;20001;-84
2022/05/14 06:28:36;;;;;;;;;;;12.50;99.90;;;;;;4861505;28;83497;-85
2022/05/14 06:32:34;;;;;;;;;;;12.60;99.90;;;;;;5027652;28;20330;-84
2022/05/14 06:35:01;;;;;;;;;;;12.70;99.90;;;;;;5020079;28;20441;-85
2022/05/14 06:37:27;;;;;;;;;;;12.70;99.90;;;;;;5018257;28;19925;-88
2022/05/14 06:39:55;;;;;;;;;;;12.80;99.90;;;;;;5030145;28;20017;-86
2022/05/14 06:42:22;;;;;;;;;;;12.90;99.90;;;;;;5027063;28;20032;-86
2022/05/14 06:44:49;;;;;;;;;;;13.00;99.90;;;;;;5034768;28;19948;-84
2022/05/14 06:47:15;;;;;;;;;;;13.00;99.90;;;;;;5037797;28;19953;-85
2022/05/14 06:49:44;;;;;;;;;;;13.20;99.90;;;;;;5042599;28;20015;-82
2022/05/14 06:52:15;;;;;;;;;;;13.30;99.90;;;;;;5032021;28;19971;-83
2022/05/14 06:54:45;;;;;;;;;;;13.40;99.90;;;;;;5027685;28;19980;-83
2022/05/14 06:57:12;;;;;;;;;;;13.50;99.90;;;;;;5033899;28;19972;-86
2022/05/14 06:59:40;;;;;;;;;;;13.60;99.90;;;;;;5030669;28;19960;-83
2022/05/14 07:02:07;;;;;;;;;;;13.70;99.90;;;;;;5030254;28;19965;-84
2022/05/14 07:07:20;;;;;;;;;;;13.90;99.90;;;;;;5031700;28;19932;-83
2022/05/14 07:09:49;;;;;;;;;;;14.00;99.90;;;;;;5043059;28;19925;-86
2022/05/14 07:12:16;;;;;;;;;;;14.00;99.90;;;;;;5046893;28;19925;-85
2022/05/14 07:14:43;;;;;;;;;;;14.10;99.90;;;;;;5030692;28;20007;-86
2022/05/14 07:17:11;;;;;;;;;;;14.10;99.90;;;;;;5031265;28;19926;-83
2022/05/14 07:19:39;;;;;;;;;;;14.20;99.90;;;;;;5030473;28;19925;-80
2022/05/14 07:22:07;;;;;;;;;;;14.30;99.90;;;;;;5027335;28;19926;-82
2022/05/14 07:24:35;;;;;;;;;;;14.30;99.90;;;;;;5033658;28;20452;-82
2022/05/14 07:27:04;;;;;;;;;;;14.40;99.90;;;;;;5034465;28;19969;-82
2022/05/14 07:29:32;;;;;;;;;;;14.50;99.90;;;;;;5029886;28;20023;-82
2022/05/14 07:31:59;;;;;;;;;;;14.50;99.90;;;;;;5029644;28;20008;-83
2022/05/14 07:34:26;;;;;;;;;;;14.70;99.90;;;;;;5030001;28;20393;-82
2022/05/14 07:36:56;;;;;;;;;;;14.70;99.90;;;;;;5029837;28;20008;-83
2022/05/14 07:39:27;;;;;;;;;;;14.70;99.90;;;;;;5028594;28;20375;-88
2022/05/14 07:41:58;;;;;;;;;;;14.80;99.90;;;;;;5024777;28;20008;-85
2022/05/14 07:44:27;;;;;;;;;;;14.80;99.90;;;;;;5015111;28;20016;-83
2022/05/14 07:46:55;;;;;;;;;;;14.90;99.90;;;;;;5015547;28;20015;-83
2022/05/14 07:49:23;;;;;;;;;;;15.00;99.90;;;;;;5026995;28;20528;-83
2022/05/14 07:51:52;;;;;;;;;;;15.00;99.90;;;;;;5033336;28;20003;-83
2022/05/14 07:54:20;;;;;;;;;;;15.00;99.90;;;;;;5031339;28;20021;-83
2022/05/14 07:56:47;;;;;;;;;;;15.10;99.90;;;;;;5019043;28;19931;-83
2022/05/14 07:59:16;;;;;;;;;;;15.30;99.90;;;;;;5023859;28;20021;-83
2022/05/14 08:01:43;;;;;;;;;;;15.40;99.90;;;;;;5020150;28;19932;-84
2022/05/14 08:04:10;;;;;;;;;;;15.40;99.90;;;;;;5015677;28;20374;-84
2022/05/14 08:06:37;;;;;;;;;;;15.50;99.90;;;;;;5026304;28;20012;-85
2022/05/14 08:09:04;;;;;;;;;;;15.60;99.90;;;;;;5014556;28;20039;-84
2022/05/14 08:11:32;;;;;;;;;;;15.60;99.90;;;;;;5021908;28;19925;-84
2022/05/14 08:13:59;;;;;;;;;;;15.70;99.90;;;;;;5015354;28;19926;-84
2022/05/14 08:16:27;;;;;;;;;;;15.70;99.90;;;;;;5015292;28;19973;-85
2022/05/14 08:18:54;;;;;;;;;;;15.80;99.90;;;;;;5024792;28;19929;-85
2022/05/14 08:26:51;;;;;;;;;;;16.00;98.40;;;;;;5012634;28;19933;-85
2022/05/14 08:29:19;;;;;;;;;;;16.00;98.60;;;;;;5028148;28;20032;-82
2022/05/14 08:31:47;;;;;;;;;;;16.10;98.60;;;;;;5016008;28;19976;-83
2022/05/14 08:34:14;;;;;;;;;;;16.10;98.70;;;;;;5016958;28;20084;-88
2022/05/14 08:36:41;;;;;;;;;;;16.20;99.00;;;;;;5016458;28;20433;-88
2022/05/14 08:39:08;;;;;;;;;;;16.20;99.40;;;;;;5016052;28;19980;-87
2022/05/14 08:41:37;;;;;;;;;;;16.30;98.60;;;;;;5017021;28;20016;-89
2022/05/14 08:44:06;;;;;;;;;;;16.40;98.40;;;;;;5018744;28;19985;-87
2022/05/14 08:46:35;;;;;;;;;;;16.40;98.40;;;;;;5019109;28;19972;-86
2022/05/14 08:49:07;;;;;;;;;;;16.60;98.10;;;;;;5014683;28;19993;-86
2022/05/14 08:51:36;;;;;;;;;;;16.50;98.20;;;;;;5015630;28;20016;-89
2022/05/14 08:54:03;;;;;;;;;;;16.60;97.70;;;;;;5032819;28;19925;-90
2022/05/14 08:56:38;;;;;;;;;;;16.70;97.50;;;;;;5035777;28;19932;-91
2022/05/14 08:59:26;;;;;;;;;;;16.80;96.00;;;;;;5034474;28;19925;-89
2022/05/14 09:01:54;;;;;;;;;;;16.90;96.80;;;;;;5022819;28;20009;-92
2022/05/14 09:04:22;;;;;;;;;;;17.10;96.10;;;;;;5026057;28;20013;-91
2022/05/14 09:06:50;;;;;;;;;;;17.10;95.20;;;;;;5024435;28;19964;-92
2022/05/14 09:09:18;;;;;;;;;;;17.20;93.00;;;;;;5023186;28;19926;-92
2022/05/14 09:11:47;;;;;;;;;;;17.20;94.40;;;;;;5032975;28;19925;-86
2022/05/14 09:14:22;;;;;;;;;;;17.10;93.40;;;;;;5028000;28;20020;-85
2022/05/14 09:16:51;;;;;;;;;;;17.10;93.60;;;;;;5021762;28;20019;-82
2022/05/14 09:19:20;;;;;;;;;;;17.20;93.70;;;;;;5033785;28;20021;-84
2022/05/14 09:21:54;;;;;;;;;;;17.30;93.00;;;;;;5033024;28;19960;-82
2022/05/14 09:24:25;;;;;;;;;;;17.40;92.10;;;;;;5001520;28;19984;-83
2022/05/14 09:26:53;;;;;;;;;;;17.50;92.40;;;;;;5031052;28;19925;-82
2022/05/14 09:29:25;;;;;;;;;;;17.40;92.70;;;;;;5025960;28;20019;-82
